sensor_id;sensor_type;location;lat;lon;timestamp;P1;durP1;ratioP1;P2;durP2;ratioP2
4057;SDS011;2044;48.692;9.020;2022-11-09T00:00:03;6.77;;;4.93;;
4057;SDS011;2044;48.692;9.020;2022-11-09T00:02:31;5.43;;;4.40;;
4057;SDS011;2044;48.692;9.020;2022-11-09T00:04:57;5.70;;;4.23;;
4057;SDS011;2044;48.692;9.020;2022-11-09T00:07:24;5.00;;;4.30;;
4057;SDS011;2044;48.692;9.020;2022-11-09T00:09:51;5.63;;;4.80;;
4057;SDS011;2044;48.692;9.020;2022-11-09T00:12:17;4.63;;;4.20;;
4057;SDS011;2044;48.692;9.020;2022-11-09T00:14:45;4.43;;;4.03;;
4057;SDS011;2044;48.692;9.020;2022-11-09T00:17:12;4.27;;;3.87;;
4057;SDS011;2044;48.692;9.020;2022-11-09T00:19:39;4.53;;;3.33;;
4057;SDS011;2044;48.692;9.020;2022-11-09T00:22:06;5.20;;;4.50;;
4057;SDS011;2044;48.692;9.020;2022-11-09T00:24:32;3.90;;;3.57;;
4057;SDS011;2044;48.692;9.020;2022-11-09T00:27:00;6.10;;;4.40;;
4057;SDS011;2044;48.692;9.020;2022-11-09T00:29:27;3.90;;;3.53;;
4057;SDS011;2044;48.692;9.020;2022-11-09T00:31:55;3.60;;;3.30;;
4057;SDS011;2044;48.692;9.020;2022-11-09T00:34:22;3.50;;;3.20;;
4057;SDS011;2044;48.692;9.020;2022-11-09T00:36:49;3.17;;;2.97;;
4057;SDS011;2044;48.692;9.020;2022-11-09T00:39:15;3.17;;;2.87;;
4057;SDS011;2044;48.692;9.020;2022-11-09T00:41:42;3.87;;;3.47;;
4057;SDS011;2044;48.692;9.020;2022-11-09T00:44:09;3.83;;;3.23;;
4057;SDS011;2044;48.692;9.020;2022-11-09T00:46:35;3.30;;;3.10;;
4057;SDS011;2044;48.692;9.020;2022-11-09T00:49:03;4.87;;;3.20;;
4057;SDS011;2044;48.692;9.020;2022-11-09T00:51:30;3.87;;;3.13;;
4057;SDS011;2044;48.692;9.020;2022-11-09T00:53:57;4.20;;;3.30;;
4057;SDS011;2044;48.692;9.020;2022-11-09T00:56:23;3.33;;;3.13;;
4057;SDS011;2044;48.692;9.020;2022-11-09T00:58:54;4.03;;;3.47;;
4057;SDS011;2044;48.692;9.020;2022-11-09T01:01:21;3.20;;;3.00;;
4057;SDS011;2044;48.692;9.020;2022-11-09T01:03:48;3.73;;;3.43;;
4057;SDS011;2044;48.692;9.020;2022-11-09T01:06:17;3.30;;;3.07;;
4057;SDS011;2044;48.692;9.020;2022-11-09T01:08:46;4.70;;;4.30;;
4057;SDS011;2044;48.692;9.020;2022-11-09T01:11:13;5.10;;;3.80;;
4057;SDS011;2044;48.692;9.020;2022-11-09T01:13:41;3.60;;;3.30;;
4057;SDS011;2044;48.692;9.020;2022-11-09T01:16:10;3.57;;;3.27;;
4057;SDS011;2044;48.692;9.020;2022-11-09T01:18:38;2.97;;;2.77;;
4057;SDS011;2044;48.692;9.020;2022-11-09T01:21:05;3.80;;;3.50;;
4057;SDS011;2044;48.692;9.020;2022-11-09T01:23:35;3.50;;;3.20;;
4057;SDS011;2044;48.692;9.020;2022-11-09T01:26:04;3.60;;;3.30;;
4057;SDS011;2044;48.692;9.020;2022-11-09T01:28:34;4.10;;;3.63;;
4057;SDS011;2044;48.692;9.020;2022-11-09T01:31:01;3.83;;;3.40;;
4057;SDS011;2044;48.692;9.020;2022-11-09T01:33:29;3.23;;;3.03;;
4057;SDS011;2044;48.692;9.020;2022-11-09T01:36:00;3.60;;;3.30;;
4057;SDS011;2044;48.692;9.020;2022-11-09T01:38:27;5.00;;;3.77;;
4057;SDS011;2044;48.692;9.020;2022-11-09T01:40:55;3.77;;;3.37;;
4057;SDS011;2044;48.692;9.020;2022-11-09T01:43:22;3.93;;;3.10;;
4057;SDS011;2044;48.692;9.020;2022-11-09T01:45:50;3.63;;;3.30;;
4057;SDS011;2044;48.692;9.020;2022-11-09T01:48:22;3.33;;;3.00;;
4057;SDS011;2044;48.692;9.020;2022-11-09T01:51:03;3.83;;;3.43;;
4057;SDS011;2044;48.692;9.020;2022-11-09T01:53:36;3.93;;;3.57;;
4057;SDS011;2044;48.692;9.020;2022-11-09T01:56:08;3.40;;;3.20;;
4057;SDS011;2044;48.692;9.020;2022-11-09T01:58:38;3.50;;;3.20;;
4057;SDS011;2044;48.692;9.020;2022-11-09T02:01:09;3.43;;;3.13;;
4057;SDS011;2044;48.692;9.020;2022-11-09T02:03:38;2.70;;;2.50;;
4057;SDS011;2044;48.692;9.020;2022-11-09T02:06:08;3.97;;;3.00;;
4057;SDS011;2044;48.692;9.020;2022-11-09T02:08:39;3.80;;;3.50;;
4057;SDS011;2044;48.692;9.020;2022-11-09T02:11:10;4.20;;;2.80;;
4057;SDS011;2044;48.692;9.020;2022-11-09T02:13:38;3.33;;;3.03;;
4057;SDS011;2044;48.692;9.020;2022-11-09T02:16:10;3.60;;;3.30;;
4057;SDS011;2044;48.692;9.020;2022-11-09T02:18:38;4.00;;;3.10;;
4057;SDS011;2044;48.692;9.020;2022-11-09T02:21:14;3.90;;;3.50;;
4057;SDS011;2044;48.692;9.020;2022-11-09T02:23:41;3.60;;;3.30;;
4057;SDS011;2044;48.692;9.020;2022-11-09T02:26:09;3.43;;;3.13;;
4057;SDS011;2044;48.692;9.020;2022-11-09T02:28:40;4.27;;;3.80;;
4057;SDS011;2044;48.692;9.020;2022-11-09T02:31:09;4.20;;;3.80;;
4057;SDS011;2044;48.692;9.020;2022-11-09T02:33:44;6.87;;;3.33;;
4057;SDS011;2044;48.692;9.020;2022-11-09T02:36:20;4.03;;;3.63;;
4057;SDS011;2044;48.692;9.020;2022-11-09T02:38:48;4.20;;;3.80;;
4057;SDS011;2044;48.692;9.020;2022-11-09T02:41:15;6.70;;;3.87;;
4057;SDS011;2044;48.692;9.020;2022-11-09T02:43:42;5.80;;;4.50;;
4057;SDS011;2044;48.692;9.020;2022-11-09T02:46:09;4.03;;;3.50;;
4057;SDS011;2044;48.692;9.020;2022-11-09T02:48:36;5.50;;;4.70;;
4057;SDS011;2044;48.692;9.020;2022-11-09T02:51:03;5.20;;;3.90;;
4057;SDS011;2044;48.692;9.020;2022-11-09T02:53:31;5.50;;;4.33;;
4057;SDS011;2044;48.692;9.020;2022-11-09T02:55:58;4.63;;;4.23;;
4057;SDS011;2044;48.692;9.020;2022-11-09T02:58:24;6.33;;;4.10;;
4057;SDS011;2044;48.692;9.020;2022-11-09T03:00:51;5.63;;;4.20;;
4057;SDS011;2044;48.692;9.020;2022-11-09T03:03:18;5.30;;;4.60;;
4057;SDS011;2044;48.692;9.020;2022-11-09T03:05:44;6.93;;;4.53;;
4057;SDS011;2044;48.692;9.020;2022-11-09T03:08:11;6.53;;;4.83;;
4057;SDS011;2044;48.692;9.020;2022-11-09T03:10:39;5.70;;;4.20;;
4057;SDS011;2044;48.692;9.020;2022-11-09T03:13:06;4.90;;;4.30;;
4057;SDS011;2044;48.692;9.020;2022-11-09T03:15:32;6.73;;;4.67;;
4057;SDS011;2044;48.692;9.020;2022-11-09T03:17:59;6.00;;;4.40;;
4057;SDS011;2044;48.692;9.020;2022-11-09T03:20:26;7.10;;;4.30;;
4057;SDS011;2044;48.692;9.020;2022-11-09T03:22:55;8.80;;;5.23;;
4057;SDS011;2044;48.692;9.020;2022-11-09T03:25:22;6.40;;;4.77;;
4057;SDS011;2044;48.692;9.020;2022-11-09T03:27:50;5.80;;;5.00;;
4057;SDS011;2044;48.692;9.020;2022-11-09T03:30:22;7.40;;;5.10;;
4057;SDS011;2044;48.692;9.020;2022-11-09T03:32:49;8.90;;;5.50;;
4057;SDS011;2044;48.692;9.020;2022-11-09T03:35:16;6.53;;;5.33;;
4057;SDS011;2044;48.692;9.020;2022-11-09T03:37:42;8.80;;;5.07;;
4057;SDS011;2044;48.692;9.020;2022-11-09T03:40:10;7.83;;;5.40;;
4057;SDS011;2044;48.692;9.020;2022-11-09T03:42:39;7.97;;;5.70;;
4057;SDS011;2044;48.692;9.020;2022-11-09T03:45:10;6.37;;;5.20;;
4057;SDS011;2044;48.692;9.020;2022-11-09T03:47:38;7.30;;;4.90;;
4057;SDS011;2044;48.692;9.020;2022-11-09T03:50:06;6.70;;;5.70;;
4057;SDS011;2044;48.692;9.020;2022-11-09T03:52:33;6.30;;;4.97;;
4057;SDS011;2044;48.692;9.020;2022-11-09T03:55:00;8.30;;;6.07;;
4057;SDS011;2044;48.692;9.020;2022-11-09T03:57:28;7.07;;;5.33;;
4057;SDS011;2044;48.692;9.020;2022-11-09T03:59:55;10.43;;;5.30;;
4057;SDS011;2044;48.692;9.020;2022-11-09T04:02:23;6.83;;;5.40;;
4057;SDS011;2044;48.692;9.020;2022-11-09T04:04:49;7.60;;;5.17;;
4057;SDS011;2044;48.692;9.020;2022-11-09T04:07:16;6.00;;;4.43;;
4057;SDS011;2044;48.692;9.020;2022-11-09T04:09:43;9.40;;;4.40;;
4057;SDS011;2044;48.692;9.020;2022-11-09T04:12:10;4.77;;;4.00;;
4057;SDS011;2044;48.692;9.020;2022-11-09T04:14:36;10.70;;;5.20;;
4057;SDS011;2044;48.692;9.020;2022-11-09T04:17:03;7.33;;;4.23;;
4057;SDS011;2044;48.692;9.020;2022-11-09T04:19:31;4.27;;;3.60;;
4057;SDS011;2044;48.692;9.020;2022-11-09T04:21:58;4.53;;;3.67;;
4057;SDS011;2044;48.692;9.020;2022-11-09T04:24:25;5.67;;;3.57;;
4057;SDS011;2044;48.692;9.020;2022-11-09T04:26:51;3.73;;;3.40;;
4057;SDS011;2044;48.692;9.020;2022-11-09T04:29:18;3.67;;;3.37;;
4057;SDS011;2044;48.692;9.020;2022-11-09T04:31:46;4.33;;;3.40;;
4057;SDS011;2044;48.692;9.020;2022-11-09T04:34:14;4.77;;;3.70;;
4057;SDS011;2044;48.692;9.020;2022-11-09T04:36:42;5.93;;;4.23;;
4057;SDS011;2044;48.692;9.020;2022-11-09T04:39:09;7.63;;;4.70;;
4057;SDS011;2044;48.692;9.020;2022-11-09T04:41:36;4.93;;;4.43;;
4057;SDS011;2044;48.692;9.020;2022-11-09T04:44:03;6.50;;;4.67;;
4057;SDS011;2044;48.692;9.020;2022-11-09T04:46:30;6.60;;;4.77;;
4057;SDS011;2044;48.692;9.020;2022-11-09T04:48:57;4.67;;;4.13;;
4057;SDS011;2044;48.692;9.020;2022-11-09T04:51:24;7.50;;;4.03;;
4057;SDS011;2044;48.692;9.020;2022-11-09T04:53:52;7.57;;;5.30;;
4057;SDS011;2044;48.692;9.020;2022-11-09T04:56:20;7.63;;;5.57;;
4057;SDS011;2044;48.692;9.020;2022-11-09T04:58:47;7.10;;;5.43;;
4057;SDS011;2044;48.692;9.020;2022-11-09T05:01:14;7.70;;;5.10;;
4057;SDS011;2044;48.692;9.020;2022-11-09T05:03:41;8.23;;;5.40;;
4057;SDS011;2044;48.692;9.020;2022-11-09T05:06:08;7.60;;;5.10;;
4057;SDS011;2044;48.692;9.020;2022-11-09T05:08:49;7.30;;;5.33;;
4057;SDS011;2044;48.692;9.020;2022-11-09T05:11:17;9.13;;;5.77;;
4057;SDS011;2044;48.692;9.020;2022-11-09T05:13:44;8.27;;;5.73;;
4057;SDS011;2044;48.692;9.020;2022-11-09T05:16:11;8.50;;;5.93;;
4057;SDS011;2044;48.692;9.020;2022-11-09T05:18:38;8.30;;;5.50;;
4057;SDS011;2044;48.692;9.020;2022-11-09T05:21:05;11.10;;;6.10;;
4057;SDS011;2044;48.692;9.020;2022-11-09T05:23:32;6.50;;;4.90;;
4057;SDS011;2044;48.692;9.020;2022-11-09T05:26:17;6.77;;;4.90;;
4057;SDS011;2044;48.692;9.020;2022-11-09T05:28:44;6.27;;;5.23;;
4057;SDS011;2044;48.692;9.020;2022-11-09T05:31:11;8.10;;;5.37;;
4057;SDS011;2044;48.692;9.020;2022-11-09T05:33:38;7.93;;;5.30;;
4057;SDS011;2044;48.692;9.020;2022-11-09T05:36:05;7.57;;;6.10;;
4057;SDS011;2044;48.692;9.020;2022-11-09T05:38:32;8.23;;;5.90;;
4057;SDS011;2044;48.692;9.020;2022-11-09T05:40:58;9.53;;;5.67;;
4057;SDS011;2044;48.692;9.020;2022-11-09T05:43:26;7.27;;;5.83;;
4057;SDS011;2044;48.692;9.020;2022-11-09T05:45:53;7.80;;;6.07;;
4057;SDS011;2044;48.692;9.020;2022-11-09T05:48:20;8.70;;;5.67;;
4057;SDS011;2044;48.692;9.020;2022-11-09T05:50:47;9.03;;;5.90;;
4057;SDS011;2044;48.692;9.020;2022-11-09T05:53:13;10.03;;;6.20;;
4057;SDS011;2044;48.692;9.020;2022-11-09T05:55:40;11.73;;;6.67;;
4057;SDS011;2044;48.692;9.020;2022-11-09T05:58:07;9.60;;;5.70;;
4057;SDS011;2044;48.692;9.020;2022-11-09T06:00:36;8.03;;;6.20;;
4057;SDS011;2044;48.692;9.020;2022-11-09T06:03:03;9.10;;;7.10;;
4057;SDS011;2044;48.692;9.020;2022-11-09T06:05:31;10.60;;;6.90;;
4057;SDS011;2044;48.692;9.020;2022-11-09T06:08:00;11.17;;;7.17;;
4057;SDS011;2044;48.692;9.020;2022-11-09T06:10:28;8.40;;;6.40;;
4057;SDS011;2044;48.692;9.020;2022-11-09T06:12:55;11.97;;;7.67;;
4057;SDS011;2044;48.692;9.020;2022-11-09T06:15:21;9.83;;;6.70;;
4057;SDS011;2044;48.692;9.020;2022-11-09T06:17:51;8.67;;;6.33;;
4057;SDS011;2044;48.692;9.020;2022-11-09T06:20:18;9.70;;;7.00;;
4057;SDS011;2044;48.692;9.020;2022-11-09T06:22:50;13.07;;;6.47;;
4057;SDS011;2044;48.692;9.020;2022-11-09T06:25:19;12.10;;;6.77;;
4057;SDS011;2044;48.692;9.020;2022-11-09T06:27:46;8.17;;;6.03;;
4057;SDS011;2044;48.692;9.020;2022-11-09T06:30:13;9.73;;;7.00;;
4057;SDS011;2044;48.692;9.020;2022-11-09T06:32:40;12.60;;;6.90;;
4057;SDS011;2044;48.692;9.020;2022-11-09T06:35:08;9.17;;;6.67;;
4057;SDS011;2044;48.692;9.020;2022-11-09T06:37:36;11.40;;;7.20;;
4057;SDS011;2044;48.692;9.020;2022-11-09T06:40:03;9.13;;;6.90;;
4057;SDS011;2044;48.692;9.020;2022-11-09T06:42:30;14.13;;;7.60;;
4057;SDS011;2044;48.692;9.020;2022-11-09T06:44:57;14.30;;;7.87;;
4057;SDS011;2044;48.692;9.020;2022-11-09T06:47:24;11.73;;;7.10;;
4057;SDS011;2044;48.692;9.020;2022-11-09T06:49:52;11.20;;;7.57;;
4057;SDS011;2044;48.692;9.020;2022-11-09T06:52:20;12.13;;;7.97;;
4057;SDS011;2044;48.692;9.020;2022-11-09T06:54:47;13.47;;;8.00;;
4057;SDS011;2044;48.692;9.020;2022-11-09T06:57:14;11.70;;;7.63;;
4057;SDS011;2044;48.692;9.020;2022-11-09T06:59:40;11.20;;;7.77;;
4057;SDS011;2044;48.692;9.020;2022-11-09T07:02:07;9.67;;;7.17;;
4057;SDS011;2044;48.692;9.020;2022-11-09T07:04:34;13.43;;;7.80;;
4057;SDS011;2044;48.692;9.020;2022-11-09T07:07:01;10.27;;;7.30;;
4057;SDS011;2044;48.692;9.020;2022-11-09T07:09:29;9.67;;;6.87;;
4057;SDS011;2044;48.692;9.020;2022-11-09T07:11:56;10.23;;;7.30;;
4057;SDS011;2044;48.692;9.020;2022-11-09T07:14:24;11.80;;;7.30;;
4057;SDS011;2044;48.692;9.020;2022-11-09T07:16:55;11.00;;;6.73;;
4057;SDS011;2044;48.692;9.020;2022-11-09T07:20:24;9.03;;;6.40;;
4057;SDS011;2044;48.692;9.020;2022-11-09T07:43:35;10.93;;;7.27;;
4057;SDS011;2044;48.692;9.020;2022-11-09T07:46:02;10.83;;;7.40;;
4057;SDS011;2044;48.692;9.020;2022-11-09T07:48:30;10.20;;;7.30;;
4057;SDS011;2044;48.692;9.020;2022-11-09T07:50:59;14.27;;;8.13;;
4057;SDS011;2044;48.692;9.020;2022-11-09T07:53:26;12.77;;;8.13;;
4057;SDS011;2044;48.692;9.020;2022-11-09T07:55:56;18.50;;;10.53;;
4057;SDS011;2044;48.692;9.020;2022-11-09T07:58:23;21.17;;;11.80;;
4057;SDS011;2044;48.692;9.020;2022-11-09T08:00:53;13.80;;;9.73;;
4057;SDS011;2044;48.692;9.020;2022-11-09T08:03:20;11.90;;;7.90;;
4057;SDS011;2044;48.692;9.020;2022-11-09T08:05:48;13.07;;;8.70;;
4057;SDS011;2044;48.692;9.020;2022-11-09T08:08:19;11.27;;;8.20;;
4057;SDS011;2044;48.692;9.020;2022-11-09T08:10:49;10.70;;;7.50;;
4057;SDS011;2044;48.692;9.020;2022-11-09T08:13:21;7.90;;;5.80;;
4057;SDS011;2044;48.692;9.020;2022-11-09T08:15:48;8.70;;;6.70;;
4057;SDS011;2044;48.692;9.020;2022-11-09T08:18:17;9.23;;;5.80;;
4057;SDS011;2044;48.692;9.020;2022-11-09T08:20:45;8.83;;;6.07;;
4057;SDS011;2044;48.692;9.020;2022-11-09T08:23:16;5.70;;;4.00;;
4057;SDS011;2044;48.692;9.020;2022-11-09T08:25:52;5.67;;;4.60;;
4057;SDS011;2044;48.692;9.020;2022-11-09T08:28:19;8.87;;;4.80;;
4057;SDS011;2044;48.692;9.020;2022-11-09T08:30:53;5.00;;;3.80;;
4057;SDS011;2044;48.692;9.020;2022-11-09T08:33:23;5.00;;;4.07;;
4057;SDS011;2044;48.692;9.020;2022-11-09T08:35:51;6.03;;;4.10;;
4057;SDS011;2044;48.692;9.020;2022-11-09T08:38:18;4.93;;;3.50;;
4057;SDS011;2044;48.692;9.020;2022-11-09T08:40:44;4.30;;;3.20;;
4057;SDS011;2044;48.692;9.020;2022-11-09T08:43:11;4.77;;;3.60;;
4057;SDS011;2044;48.692;9.020;2022-11-09T08:45:38;2.73;;;2.50;;
4057;SDS011;2044;48.692;9.020;2022-11-09T08:48:06;4.07;;;3.00;;
4057;SDS011;2044;48.692;9.020;2022-11-09T08:50:36;2.70;;;2.40;;
4057;SDS011;2044;48.692;9.020;2022-11-09T08:53:07;2.20;;;2.00;;
4057;SDS011;2044;48.692;9.020;2022-11-09T08:55:40;4.77;;;2.23;;
4057;SDS011;2044;48.692;9.020;2022-11-09T08:58:36;1.70;;;1.60;;
4057;SDS011;2044;48.692;9.020;2022-11-09T09:01:05;2.60;;;2.03;;
4057;SDS011;2044;48.692;9.020;2022-11-09T09:03:49;2.23;;;2.03;;
4057;SDS011;2044;48.692;9.020;2022-11-09T09:06:31;2.10;;;1.83;;
4057;SDS011;2044;48.692;9.020;2022-11-09T09:09:15;1.17;;;1.07;;
4057;SDS011;2044;48.692;9.020;2022-11-09T09:11:50;1.60;;;1.50;;
4057;SDS011;2044;48.692;9.020;2022-11-09T09:14:23;2.47;;;1.50;;
4057;SDS011;2044;48.692;9.020;2022-11-09T09:16:59;1.67;;;1.50;;
4057;SDS011;2044;48.692;9.020;2022-11-09T09:19:30;3.53;;;1.67;;
4057;SDS011;2044;48.692;9.020;2022-11-09T09:21:58;1.90;;;1.60;;
4057;SDS011;2044;48.692;9.020;2022-11-09T09:24:34;3.00;;;1.60;;
4057;SDS011;2044;48.692;9.020;2022-11-09T09:27:03;1.93;;;1.40;;
4057;SDS011;2044;48.692;9.020;2022-11-09T09:29:30;3.33;;;2.30;;
4057;SDS011;2044;48.692;9.020;2022-11-09T09:32:04;1.33;;;1.20;;
4057;SDS011;2044;48.692;9.020;2022-11-09T09:34:34;1.67;;;1.20;;
4057;SDS011;2044;48.692;9.020;2022-11-09T09:39:59;2.73;;;2.30;;
4057;SDS011;2044;48.692;9.020;2022-11-09T09:42:29;2.40;;;1.73;;
4057;SDS011;2044;48.692;9.020;2022-11-09T09:45:01;1.93;;;1.70;;
4057;SDS011;2044;48.692;9.020;2022-11-09T09:47:34;5.90;;;2.67;;
4057;SDS011;2044;48.692;9.020;2022-11-09T09:50:09;3.27;;;2.97;;
4057;SDS011;2044;48.692;9.020;2022-11-09T09:52:39;2.97;;;2.70;;
4057;SDS011;2044;48.692;9.020;2022-11-09T09:55:14;3.77;;;2.83;;
4057;SDS011;2044;48.692;9.020;2022-11-09T09:57:48;3.43;;;2.30;;
4057;SDS011;2044;48.692;9.020;2022-11-09T10:00:19;2.53;;;2.33;;
4057;SDS011;2044;48.692;9.020;2022-11-09T10:02:48;2.73;;;2.53;;
4057;SDS011;2044;48.692;9.020;2022-11-09T10:05:16;6.40;;;3.70;;
4057;SDS011;2044;48.692;9.020;2022-11-09T10:07:45;3.80;;;3.10;;
4057;SDS011;2044;48.692;9.020;2022-11-09T10:10:24;4.70;;;2.63;;
4057;SDS011;2044;48.692;9.020;2022-11-09T10:16:05;6.83;;;2.90;;
4057;SDS011;2044;48.692;9.020;2022-11-09T10:18:41;3.13;;;2.83;;
4057;SDS011;2044;48.692;9.020;2022-11-09T10:21:18;3.27;;;2.97;;
4057;SDS011;2044;48.692;9.020;2022-11-09T10:24:03;4.27;;;3.40;;
4057;SDS011;2044;48.692;9.020;2022-11-09T10:26:41;3.17;;;2.70;;
4057;SDS011;2044;48.692;9.020;2022-11-09T10:29:15;2.30;;;2.10;;
4057;SDS011;2044;48.692;9.020;2022-11-09T10:31:47;2.80;;;2.60;;
4057;SDS011;2044;48.692;9.020;2022-11-09T10:34:16;5.83;;;3.07;;
4057;SDS011;2044;48.692;9.020;2022-11-09T10:36:46;6.10;;;2.87;;
4057;SDS011;2044;48.692;9.020;2022-11-09T10:39:19;5.70;;;3.00;;
4057;SDS011;2044;48.692;9.020;2022-11-09T10:41:49;3.00;;;2.70;;
4057;SDS011;2044;48.692;9.020;2022-11-09T10:44:16;3.43;;;2.70;;
4057;SDS011;2044;48.692;9.020;2022-11-09T10:47:00;3.70;;;2.80;;
4057;SDS011;2044;48.692;9.020;2022-11-09T10:49:29;4.00;;;2.60;;
4057;SDS011;2044;48.692;9.020;2022-11-09T10:51:58;3.73;;;2.77;;
4057;SDS011;2044;48.692;9.020;2022-11-09T10:54:25;2.53;;;2.33;;
4057;SDS011;2044;48.692;9.020;2022-11-09T10:56:59;2.20;;;2.00;;
4057;SDS011;2044;48.692;9.020;2022-11-09T10:59:40;2.70;;;2.50;;
4057;SDS011;2044;48.692;9.020;2022-11-09T11:07:57;2.37;;;1.93;;
4057;SDS011;2044;48.692;9.020;2022-11-09T11:10:36;2.47;;;2.10;;
4057;SDS011;2044;48.692;9.020;2022-11-09T11:13:21;3.57;;;2.50;;
4057;SDS011;2044;48.692;9.020;2022-11-09T11:15:49;2.77;;;2.53;;
4057;SDS011;2044;48.692;9.020;2022-11-09T11:18:20;4.93;;;3.20;;
4057;SDS011;2044;48.692;9.020;2022-11-09T11:21:06;2.90;;;2.20;;
4057;SDS011;2044;48.692;9.020;2022-11-09T11:23:39;6.77;;;2.83;;
4057;SDS011;2044;48.692;9.020;2022-11-09T11:28:56;2.97;;;2.67;;
4057;SDS011;2044;48.692;9.020;2022-11-09T11:31:26;3.03;;;2.83;;
4057;SDS011;2044;48.692;9.020;2022-11-09T11:33:53;3.60;;;2.93;;
4057;SDS011;2044;48.692;9.020;2022-11-09T11:36:24;4.53;;;2.70;;
4057;SDS011;2044;48.692;9.020;2022-11-09T11:39:01;3.53;;;3.23;;
4057;SDS011;2044;48.692;9.020;2022-11-09T11:41:47;3.27;;;2.97;;
4057;SDS011;2044;48.692;9.020;2022-11-09T11:44:32;3.50;;;2.90;;
4057;SDS011;2044;48.692;9.020;2022-11-09T11:47:13;2.77;;;2.57;;
4057;SDS011;2044;48.692;9.020;2022-11-09T11:49:51;2.70;;;2.50;;
4057;SDS011;2044;48.692;9.020;2022-11-09T11:52:44;2.90;;;2.70;;
4057;SDS011;2044;48.692;9.020;2022-11-09T11:55:25;4.37;;;2.77;;
4057;SDS011;2044;48.692;9.020;2022-11-09T11:58:08;6.77;;;3.20;;
4057;SDS011;2044;48.692;9.020;2022-11-09T12:00:50;3.50;;;2.90;;
4057;SDS011;2044;48.692;9.020;2022-11-09T12:03:37;2.90;;;2.60;;
4057;SDS011;2044;48.692;9.020;2022-11-09T12:06:25;3.13;;;2.83;;
4057;SDS011;2044;48.692;9.020;2022-11-09T12:09:09;3.37;;;2.73;;
4057;SDS011;2044;48.692;9.020;2022-11-09T12:11:48;3.40;;;2.20;;
4057;SDS011;2044;48.692;9.020;2022-11-09T12:14:38;4.70;;;2.53;;
4057;SDS011;2044;48.692;9.020;2022-11-09T12:17:19;3.27;;;2.97;;
4057;SDS011;2044;48.692;9.020;2022-11-09T12:20:04;2.87;;;2.60;;
4057;SDS011;2044;48.692;9.020;2022-11-09T12:22:42;3.00;;;2.70;;
4057;SDS011;2044;48.692;9.020;2022-11-09T12:25:20;3.07;;;2.77;;
4057;SDS011;2044;48.692;9.020;2022-11-09T12:27:59;4.10;;;3.00;;
4057;SDS011;2044;48.692;9.020;2022-11-09T12:30:44;3.20;;;2.90;;
4057;SDS011;2044;48.692;9.020;2022-11-09T12:33:20;2.60;;;2.40;;
4057;SDS011;2044;48.692;9.020;2022-11-09T12:35:54;3.87;;;3.00;;
4057;SDS011;2044;48.692;9.020;2022-11-09T12:38:26;2.67;;;2.20;;
4057;SDS011;2044;48.692;9.020;2022-11-09T12:40:56;3.03;;;2.63;;
4057;SDS011;2044;48.692;9.020;2022-11-09T12:43:27;3.60;;;2.90;;
4057;SDS011;2044;48.692;9.020;2022-11-09T12:46:01;4.37;;;3.30;;
4057;SDS011;2044;48.692;9.020;2022-11-09T12:48:32;3.63;;;2.83;;
4057;SDS011;2044;48.692;9.020;2022-11-09T12:51:00;4.57;;;2.40;;
4057;SDS011;2044;48.692;9.020;2022-11-09T12:53:31;2.80;;;2.60;;
4057;SDS011;2044;48.692;9.020;2022-11-09T12:56:00;4.17;;;3.00;;
4057;SDS011;2044;48.692;9.020;2022-11-09T12:58:31;4.00;;;2.87;;
4057;SDS011;2044;48.692;9.020;2022-11-09T13:01:03;2.33;;;2.03;;
4057;SDS011;2044;48.692;9.020;2022-11-09T13:03:34;2.93;;;2.37;;
4057;SDS011;2044;48.692;9.020;2022-11-09T13:06:12;2.40;;;2.20;;
4057;SDS011;2044;48.692;9.020;2022-11-09T13:08:42;4.70;;;4.30;;
4057;SDS011;2044;48.692;9.020;2022-11-09T13:11:21;2.90;;;2.60;;
4057;SDS011;2044;48.692;9.020;2022-11-09T13:17:00;3.13;;;2.90;;
4057;SDS011;2044;48.692;9.020;2022-11-09T13:19:49;3.33;;;3.03;;
4057;SDS011;2044;48.692;9.020;2022-11-09T13:25:33;2.77;;;2.20;;
4057;SDS011;2044;48.692;9.020;2022-11-09T13:28:20;3.40;;;3.07;;
4057;SDS011;2044;48.692;9.020;2022-11-09T13:31:09;4.30;;;2.67;;
4057;SDS011;2044;48.692;9.020;2022-11-09T13:33:37;3.40;;;3.10;;
4057;SDS011;2044;48.692;9.020;2022-11-09T13:38:46;5.00;;;2.80;;
4057;SDS011;2044;48.692;9.020;2022-11-09T13:41:49;3.47;;;2.70;;
4057;SDS011;2044;48.692;9.020;2022-11-09T13:44:23;3.23;;;2.80;;
4057;SDS011;2044;48.692;9.020;2022-11-09T13:46:51;2.90;;;2.70;;
4057;SDS011;2044;48.692;9.020;2022-11-09T13:49:36;5.17;;;2.80;;
4057;SDS011;2044;48.692;9.020;2022-11-09T13:55:11;2.80;;;2.60;;
4057;SDS011;2044;48.692;9.020;2022-11-09T13:57:43;3.00;;;2.67;;
4057;SDS011;2044;48.692;9.020;2022-11-09T14:00:13;2.97;;;2.70;;
4057;SDS011;2044;48.692;9.020;2022-11-09T14:02:50;2.87;;;2.67;;
4057;SDS011;2044;48.692;9.020;2022-11-09T14:05:22;3.60;;;3.10;;
4057;SDS011;2044;48.692;9.020;2022-11-09T14:07:51;3.10;;;2.80;;
4057;SDS011;2044;48.692;9.020;2022-11-09T14:10:22;3.53;;;3.17;;
4057;SDS011;2044;48.692;9.020;2022-11-09T14:13:03;5.00;;;3.17;;
4057;SDS011;2044;48.692;9.020;2022-11-09T14:15:49;3.37;;;2.50;;
4057;SDS011;2044;48.692;9.020;2022-11-09T14:18:25;3.53;;;3.10;;
4057;SDS011;2044;48.692;9.020;2022-11-09T14:21:05;3.60;;;3.07;;
4057;SDS011;2044;48.692;9.020;2022-11-09T14:23:40;3.63;;;3.27;;
4057;SDS011;2044;48.692;9.020;2022-11-09T14:26:07;3.47;;;3.17;;
4057;SDS011;2044;48.692;9.020;2022-11-09T14:28:40;3.53;;;3.23;;
4057;SDS011;2044;48.692;9.020;2022-11-09T14:31:18;3.73;;;3.40;;
4057;SDS011;2044;48.692;9.020;2022-11-09T14:33:56;3.70;;;3.40;;
4057;SDS011;2044;48.692;9.020;2022-11-09T14:36:23;3.07;;;2.87;;
4057;SDS011;2044;48.692;9.020;2022-11-09T14:38:53;3.83;;;3.47;;
4057;SDS011;2044;48.692;9.020;2022-11-09T14:41:23;3.30;;;3.00;;
4057;SDS011;2044;48.692;9.020;2022-11-09T14:43:51;5.37;;;3.23;;
4057;SDS011;2044;48.692;9.020;2022-11-09T14:46:20;7.10;;;3.67;;
4057;SDS011;2044;48.692;9.020;2022-11-09T14:48:49;4.70;;;3.43;;
4057;SDS011;2044;48.692;9.020;2022-11-09T14:51:16;6.27;;;3.30;;
4057;SDS011;2044;48.692;9.020;2022-11-09T14:53:44;4.63;;;2.97;;
4057;SDS011;2044;48.692;9.020;2022-11-09T14:56:16;4.53;;;3.27;;
4057;SDS011;2044;48.692;9.020;2022-11-09T14:58:45;4.30;;;3.70;;
4057;SDS011;2044;48.692;9.020;2022-11-09T15:01:19;3.73;;;3.10;;
4057;SDS011;2044;48.692;9.020;2022-11-09T15:06:33;3.47;;;3.17;;
4057;SDS011;2044;48.692;9.020;2022-11-09T15:09:02;5.50;;;3.63;;
4057;SDS011;2044;48.692;9.020;2022-11-09T15:11:35;3.47;;;3.10;;
4057;SDS011;2044;48.692;9.020;2022-11-09T15:14:09;5.00;;;3.77;;
4057;SDS011;2044;48.692;9.020;2022-11-09T15:16:38;4.57;;;3.70;;
4057;SDS011;2044;48.692;9.020;2022-11-09T15:19:05;5.83;;;4.30;;
4057;SDS011;2044;48.692;9.020;2022-11-09T15:21:44;4.20;;;3.50;;
4057;SDS011;2044;48.692;9.020;2022-11-09T15:24:12;5.17;;;3.60;;
4057;SDS011;2044;48.692;9.020;2022-11-09T15:26:43;4.53;;;3.23;;
4057;SDS011;2044;48.692;9.020;2022-11-09T15:32:07;5.10;;;3.60;;
4057;SDS011;2044;48.692;9.020;2022-11-09T15:34:40;3.37;;;3.07;;
4057;SDS011;2044;48.692;9.020;2022-11-09T15:37:18;4.90;;;3.10;;
4057;SDS011;2044;48.692;9.020;2022-11-09T15:39:47;5.13;;;3.50;;
4057;SDS011;2044;48.692;9.020;2022-11-09T15:42:16;2.90;;;2.60;;
4057;SDS011;2044;48.692;9.020;2022-11-09T15:44:43;3.47;;;2.83;;
4057;SDS011;2044;48.692;9.020;2022-11-09T15:47:19;3.90;;;3.30;;
4057;SDS011;2044;48.692;9.020;2022-11-09T15:49:48;4.10;;;3.70;;
4057;SDS011;2044;48.692;9.020;2022-11-09T15:52:15;4.33;;;3.57;;
4057;SDS011;2044;48.692;9.020;2022-11-09T15:54:42;6.10;;;4.50;;
4057;SDS011;2044;48.692;9.020;2022-11-09T15:57:11;4.83;;;3.60;;
4057;SDS011;2044;48.692;9.020;2022-11-09T15:59:44;5.00;;;3.50;;
4057;SDS011;2044;48.692;9.020;2022-11-09T16:02:11;4.90;;;3.73;;
4057;SDS011;2044;48.692;9.020;2022-11-09T16:04:39;3.57;;;3.13;;
4057;SDS011;2044;48.692;9.020;2022-11-09T16:07:08;4.20;;;3.10;;
4057;SDS011;2044;48.692;9.020;2022-11-09T16:09:38;3.93;;;3.00;;
4057;SDS011;2044;48.692;9.020;2022-11-09T16:12:05;5.93;;;3.30;;
4057;SDS011;2044;48.692;9.020;2022-11-09T16:14:33;4.10;;;3.37;;
4057;SDS011;2044;48.692;9.020;2022-11-09T16:17:02;3.70;;;2.67;;
4057;SDS011;2044;48.692;9.020;2022-11-09T16:19:29;3.00;;;2.67;;
4057;SDS011;2044;48.692;9.020;2022-11-09T16:21:56;2.50;;;2.30;;
4057;SDS011;2044;48.692;9.020;2022-11-09T16:24:26;2.60;;;2.27;;
4057;SDS011;2044;48.692;9.020;2022-11-09T16:26:53;3.50;;;2.20;;
4057;SDS011;2044;48.692;9.020;2022-11-09T16:29:21;4.70;;;2.70;;